sensor_id;sensor_type;location;lat;lon;timestamp;P1;durP1;ratioP1;P2;durP2;ratioP2
78143;SDS011;67394;52.522;13.622;2023-02-01T00:02:08;15.60;;;3.00;;
78143;SDS011;67394;52.522;13.622;2023-02-01T00:04:35;12.80;;;2.83;;
78143;SDS011;67394;52.522;13.622;2023-02-01T00:07:01;9.25;;;2.70;;
78143;SDS011;67394;52.522;13.622;2023-02-01T00:09:27;11.98;;;3.08;;
78143;SDS011;67394;52.522;13.622;2023-02-01T00:11:54;11.48;;;2.95;;
78143;SDS011;67394;52.522;13.622;2023-02-01T00:14:20;7.18;;;2.05;;
78143;SDS011;67394;52.522;13.622;2023-02-01T00:16:47;14.50;;;3.40;;
78143;SDS011;67394;52.522;13.622;2023-02-01T00:19:14;10.48;;;2.88;;
78143;SDS011;67394;52.522;13.622;2023-02-01T00:21:41;9.55;;;2.22;;
78143;SDS011;67394;52.522;13.622;2023-02-01T00:24:08;10.32;;;2.50;;
78143;SDS011;67394;52.522;13.622;2023-02-01T00:26:42;12.10;;;2.92;;
78143;SDS011;67394;52.522;13.622;2023-02-01T00:29:14;12.25;;;2.33;;
78143;SDS011;67394;52.522;13.622;2023-02-01T00:31:42;11.43;;;2.45;;
78143;SDS011;67394;52.522;13.622;2023-02-01T00:34:13;15.75;;;4.22;;
78143;SDS011;67394;52.522;13.622;2023-02-01T00:36:41;9.15;;;2.47;;
78143;SDS011;67394;52.522;13.622;2023-02-01T00:39:08;13.98;;;2.97;;
78143;SDS011;67394;52.522;13.622;2023-02-01T00:41:35;10.88;;;3.42;;
78143;SDS011;67394;52.522;13.622;2023-02-01T00:44:02;15.07;;;2.33;;
78143;SDS011;67394;52.522;13.622;2023-02-01T00:46:28;9.75;;;2.40;;
78143;SDS011;67394;52.522;13.622;2023-02-01T00:48:55;12.40;;;2.60;;
78143;SDS011;67394;52.522;13.622;2023-02-01T00:51:23;13.82;;;3.45;;
78143;SDS011;67394;52.522;13.622;2023-02-01T00:53:51;14.73;;;3.22;;
78143;SDS011;67394;52.522;13.622;2023-02-01T00:56:18;6.97;;;2.40;;
78143;SDS011;67394;52.522;13.622;2023-02-01T00:58:45;8.57;;;3.08;;
78143;SDS011;67394;52.522;13.622;2023-02-01T01:01:13;7.95;;;2.83;;
78143;SDS011;67394;52.522;13.622;2023-02-01T01:03:42;10.40;;;2.70;;
78143;SDS011;67394;52.522;13.622;2023-02-01T01:06:12;11.18;;;2.42;;
78143;SDS011;67394;52.522;13.622;2023-02-01T01:08:40;10.98;;;2.92;;
78143;SDS011;67394;52.522;13.622;2023-02-01T01:11:30;11.85;;;3.30;;
78143;SDS011;67394;52.522;13.622;2023-02-01T01:13:56;10.50;;;2.28;;
78143;SDS011;67394;52.522;13.622;2023-02-01T01:16:24;5.97;;;2.40;;
78143;SDS011;67394;52.522;13.622;2023-02-01T01:18:52;10.05;;;2.55;;
78143;SDS011;67394;52.522;13.622;2023-02-01T01:21:19;6.03;;;1.75;;
78143;SDS011;67394;52.522;13.622;2023-02-01T01:23:46;6.28;;;1.95;;
78143;SDS011;67394;52.522;13.622;2023-02-01T01:26:14;10.45;;;3.42;;
78143;SDS011;67394;52.522;13.622;2023-02-01T01:28:42;3.33;;;1.52;;
78143;SDS011;67394;52.522;13.622;2023-02-01T01:31:10;10.40;;;2.80;;
78143;SDS011;67394;52.522;13.622;2023-02-01T01:33:37;8.80;;;1.98;;
78143;SDS011;67394;52.522;13.622;2023-02-01T01:36:05;9.63;;;2.00;;
78143;SDS011;67394;52.522;13.622;2023-02-01T01:38:32;6.50;;;2.45;;
78143;SDS011;67394;52.522;13.622;2023-02-01T01:40:58;7.72;;;2.38;;
78143;SDS011;67394;52.522;13.622;2023-02-01T01:43:25;8.25;;;2.03;;
78143;SDS011;67394;52.522;13.622;2023-02-01T01:45:51;7.70;;;2.13;;
78143;SDS011;67394;52.522;13.622;2023-02-01T01:48:24;11.23;;;2.78;;
78143;SDS011;67394;52.522;13.622;2023-02-01T01:50:55;9.23;;;2.72;;
78143;SDS011;67394;52.522;13.622;2023-02-01T01:55:55;11.25;;;2.58;;
78143;SDS011;67394;52.522;13.622;2023-02-01T01:58:23;11.82;;;2.28;;
78143;SDS011;67394;52.522;13.622;2023-02-01T02:00:52;8.00;;;1.92;;
78143;SDS011;67394;52.522;13.622;2023-02-01T02:03:53;10.07;;;2.05;;
78143;SDS011;67394;52.522;13.622;2023-02-01T02:09:05;7.57;;;2.70;;
78143;SDS011;67394;52.522;13.622;2023-02-01T02:11:32;10.65;;;2.55;;
78143;SDS011;67394;52.522;13.622;2023-02-01T02:13:59;9.93;;;2.88;;
78143;SDS011;67394;52.522;13.622;2023-02-01T02:16:38;9.50;;;2.50;;
78143;SDS011;67394;52.522;13.622;2023-02-01T02:22:05;8.27;;;3.28;;
78143;SDS011;67394;52.522;13.622;2023-02-01T02:36:07;8.85;;;2.20;;
78143;SDS011;67394;52.522;13.622;2023-02-01T02:43:54;14.77;;;3.20;;
78143;SDS011;67394;52.522;13.622;2023-02-01T02:46:25;10.63;;;2.53;;
78143;SDS011;67394;52.522;13.622;2023-02-01T02:51:43;11.23;;;2.67;;
78143;SDS011;67394;52.522;13.622;2023-02-01T02:54:32;8.48;;;2.50;;
78143;SDS011;67394;52.522;13.622;2023-02-01T02:57:02;12.60;;;2.72;;
78143;SDS011;67394;52.522;13.622;2023-02-01T02:59:32;8.45;;;1.73;;
78143;SDS011;67394;52.522;13.622;2023-02-01T03:02:01;13.30;;;2.50;;
78143;SDS011;67394;52.522;13.622;2023-02-01T03:04:28;9.68;;;2.25;;
78143;SDS011;67394;52.522;13.622;2023-02-01T03:06:54;7.68;;;2.47;;
78143;SDS011;67394;52.522;13.622;2023-02-01T03:09:30;9.13;;;2.13;;
78143;SDS011;67394;52.522;13.622;2023-02-01T03:12:03;8.80;;;3.15;;
78143;SDS011;67394;52.522;13.622;2023-02-01T03:17:05;10.23;;;2.88;;
78143;SDS011;67394;52.522;13.622;2023-02-01T03:19:39;10.98;;;2.58;;
78143;SDS011;67394;52.522;13.622;2023-02-01T03:22:11;10.13;;;2.22;;
78143;SDS011;67394;52.522;13.622;2023-02-01T03:24:41;11.50;;;2.63;;
78143;SDS011;67394;52.522;13.622;2023-02-01T03:27:23;12.23;;;2.63;;
78143;SDS011;67394;52.522;13.622;2023-02-01T03:30:07;11.35;;;2.42;;
78143;SDS011;67394;52.522;13.622;2023-02-01T03:32:34;9.82;;;2.53;;
78143;SDS011;67394;52.522;13.622;2023-02-01T03:35:03;7.78;;;3.20;;
78143;SDS011;67394;52.522;13.622;2023-02-01T03:37:30;13.10;;;2.15;;
78143;SDS011;67394;52.522;13.622;2023-02-01T03:39:57;9.18;;;2.45;;
78143;SDS011;67394;52.522;13.622;2023-02-01T03:42:43;11.27;;;2.38;;
78143;SDS011;67394;52.522;13.622;2023-02-01T03:45:17;14.75;;;3.15;;
78143;SDS011;67394;52.522;13.622;2023-02-01T03:48:06;12.27;;;2.28;;
78143;SDS011;67394;52.522;13.622;2023-02-01T03:50:33;16.08;;;3.38;;
78143;SDS011;67394;52.522;13.622;2023-02-01T03:53:07;14.70;;;3.00;;
78143;SDS011;67394;52.522;13.622;2023-02-01T03:55:37;7.93;;;2.63;;
78143;SDS011;67394;52.522;13.622;2023-02-01T03:58:08;12.93;;;2.63;;
78143;SDS011;67394;52.522;13.622;2023-02-01T04:00:38;8.48;;;2.63;;
78143;SDS011;67394;52.522;13.622;2023-02-01T04:03:05;9.93;;;2.50;;
78143;SDS011;67394;52.522;13.622;2023-02-01T04:05:33;14.43;;;3.33;;
78143;SDS011;67394;52.522;13.622;2023-02-01T04:08:00;14.15;;;3.10;;
78143;SDS011;67394;52.522;13.622;2023-02-01T04:10:26;6.53;;;2.20;;
78143;SDS011;67394;52.522;13.622;2023-02-01T04:12:53;12.35;;;2.20;;
78143;SDS011;67394;52.522;13.622;2023-02-01T04:15:19;10.15;;;3.00;;
78143;SDS011;67394;52.522;13.622;2023-02-01T04:17:45;11.05;;;2.72;;
78143;SDS011;67394;52.522;13.622;2023-02-01T04:20:12;10.25;;;2.53;;
78143;SDS011;67394;52.522;13.622;2023-02-01T04:22:38;10.38;;;2.40;;
78143;SDS011;67394;52.522;13.622;2023-02-01T04:25:04;11.38;;;3.08;;
78143;SDS011;67394;52.522;13.622;2023-02-01T04:27:31;12.25;;;3.20;;
78143;SDS011;67394;52.522;13.622;2023-02-01T04:29:58;12.35;;;3.10;;
78143;SDS011;67394;52.522;13.622;2023-02-01T04:32:24;12.35;;;2.85;;
78143;SDS011;67394;52.522;13.622;2023-02-01T04:34:50;10.98;;;3.58;;
78143;SDS011;67394;52.522;13.622;2023-02-01T04:37:17;10.88;;;2.47;;
78143;SDS011;67394;52.522;13.622;2023-02-01T04:39:43;12.85;;;2.70;;
78143;SDS011;67394;52.522;13.622;2023-02-01T04:42:09;12.10;;;2.60;;
78143;SDS011;67394;52.522;13.622;2023-02-01T04:44:36;14.07;;;2.97;;
78143;SDS011;67394;52.522;13.622;2023-02-01T04:47:02;15.00;;;3.10;;
78143;SDS011;67394;52.522;13.622;2023-02-01T04:49:28;12.98;;;3.42;;
78143;SDS011;67394;52.522;13.622;2023-02-01T04:51:55;13.25;;;2.50;;
78143;SDS011;67394;52.522;13.622;2023-02-01T04:54:21;16.92;;;3.28;;
78143;SDS011;67394;52.522;13.622;2023-02-01T04:56:47;15.75;;;2.88;;
78143;SDS011;67394;52.522;13.622;2023-02-01T04:59:13;11.10;;;2.95;;
78143;SDS011;67394;52.522;13.622;2023-02-01T05:01:40;13.07;;;2.53;;
78143;SDS011;67394;52.522;13.622;2023-02-01T05:04:06;12.20;;;3.10;;
78143;SDS011;67394;52.522;13.622;2023-02-01T05:06:33;8.85;;;2.47;;
78143;SDS011;67394;52.522;13.622;2023-02-01T05:08:59;11.02;;;2.72;;
78143;SDS011;67394;52.522;13.622;2023-02-01T05:11:25;7.82;;;2.53;;
78143;SDS011;67394;52.522;13.622;2023-02-01T05:13:52;11.35;;;3.22;;
78143;SDS011;67394;52.522;13.622;2023-02-01T05:16:18;18.08;;;3.65;;
78143;SDS011;67394;52.522;13.622;2023-02-01T05:18:44;6.85;;;2.60;;
78143;SDS011;67394;52.522;13.622;2023-02-01T05:21:11;13.65;;;2.60;;
78143;SDS011;67394;52.522;13.622;2023-02-01T05:23:37;11.30;;;2.83;;
78143;SDS011;67394;52.522;13.622;2023-02-01T05:26:04;16.77;;;3.50;;
78143;SDS011;67394;52.522;13.622;2023-02-01T05:28:30;9.10;;;2.67;;
78143;SDS011;67394;52.522;13.622;2023-02-01T05:30:56;11.55;;;3.00;;
78143;SDS011;67394;52.522;13.622;2023-02-01T05:33:23;9.88;;;2.60;;
78143;SDS011;67394;52.522;13.622;2023-02-01T05:35:49;12.75;;;2.50;;
78143;SDS011;67394;52.522;13.622;2023-02-01T05:38:15;11.50;;;2.85;;
78143;SDS011;67394;52.522;13.622;2023-02-01T05:40:42;14.40;;;3.58;;
78143;SDS011;67394;52.522;13.622;2023-02-01T05:43:08;9.25;;;2.80;;
78143;SDS011;67394;52.522;13.622;2023-02-01T05:45:34;7.57;;;2.85;;
78143;SDS011;67394;52.522;13.622;2023-02-01T05:48:01;16.80;;;3.53;;
78143;SDS011;67394;52.522;13.622;2023-02-01T05:50:27;10.68;;;2.65;;
78143;SDS011;67394;52.522;13.622;2023-02-01T05:52:53;11.82;;;3.10;;
78143;SDS011;67394;52.522;13.622;2023-02-01T05:55:19;11.60;;;3.38;;
78143;SDS011;67394;52.522;13.622;2023-02-01T05:57:46;12.05;;;2.60;;
78143;SDS011;67394;52.522;13.622;2023-02-01T06:00:12;9.25;;;2.78;;
78143;SDS011;67394;52.522;13.622;2023-02-01T06:02:39;11.45;;;2.55;;
78143;SDS011;67394;52.522;13.622;2023-02-01T06:05:05;7.63;;;2.60;;
78143;SDS011;67394;52.522;13.622;2023-02-01T06:07:32;10.10;;;2.58;;
78143;SDS011;67394;52.522;13.622;2023-02-01T06:09:59;13.32;;;3.17;;
78143;SDS011;67394;52.522;13.622;2023-02-01T06:12:25;11.57;;;3.03;;
78143;SDS011;67394;52.522;13.622;2023-02-01T06:14:51;10.57;;;3.25;;
78143;SDS011;67394;52.522;13.622;2023-02-01T06:17:17;10.50;;;4.03;;
78143;SDS011;67394;52.522;13.622;2023-02-01T06:19:44;18.55;;;3.10;;
78143;SDS011;67394;52.522;13.622;2023-02-01T06:22:10;10.52;;;3.13;;
78143;SDS011;67394;52.522;13.622;2023-02-01T06:24:36;13.18;;;3.30;;
78143;SDS011;67394;52.522;13.622;2023-02-01T06:27:03;17.30;;;3.00;;
78143;SDS011;67394;52.522;13.622;2023-02-01T06:29:29;12.98;;;3.20;;
78143;SDS011;67394;52.522;13.622;2023-02-01T06:31:55;11.13;;;3.65;;
78143;SDS011;67394;52.522;13.622;2023-02-01T06:34:22;8.38;;;2.72;;
78143;SDS011;67394;52.522;13.622;2023-02-01T06:36:48;11.65;;;3.25;;
78143;SDS011;67394;52.522;13.622;2023-02-01T06:39:15;10.80;;;3.28;;
78143;SDS011;67394;52.522;13.622;2023-02-01T06:41:45;10.35;;;3.47;;
78143;SDS011;67394;52.522;13.622;2023-02-01T06:44:12;13.43;;;3.35;;
78143;SDS011;67394;52.522;13.622;2023-02-01T06:46:39;11.40;;;3.25;;
78143;SDS011;67394;52.522;13.622;2023-02-01T06:49:05;17.23;;;3.47;;
78143;SDS011;67394;52.522;13.622;2023-02-01T06:51:32;16.80;;;3.67;;
78143;SDS011;67394;52.522;13.622;2023-02-01T06:53:58;14.82;;;3.15;;
78143;SDS011;67394;52.522;13.622;2023-02-01T06:56:24;12.63;;;3.10;;
78143;SDS011;67394;52.522;13.622;2023-02-01T06:58:51;10.55;;;3.30;;
78143;SDS011;67394;52.522;13.622;2023-02-01T07:01:18;16.20;;;3.70;;
78143;SDS011;67394;52.522;13.622;2023-02-01T07:03:50;12.13;;;3.35;;
78143;SDS011;67394;52.522;13.622;2023-02-01T07:06:17;11.98;;;4.53;;
78143;SDS011;67394;52.522;13.622;2023-02-01T07:08:44;11.35;;;3.22;;
78143;SDS011;67394;52.522;13.622;2023-02-01T07:11:11;15.25;;;3.60;;
78143;SDS011;67394;52.522;13.622;2023-02-01T07:13:39;11.65;;;3.15;;
78143;SDS011;67394;52.522;13.622;2023-02-01T07:16:06;13.63;;;3.20;;
78143;SDS011;67394;52.522;13.622;2023-02-01T07:18:35;15.23;;;3.28;;
78143;SDS011;67394;52.522;13.622;2023-02-01T07:21:01;11.38;;;2.85;;
78143;SDS011;67394;52.522;13.622;2023-02-01T07:23:28;17.60;;;3.17;;
78143;SDS011;67394;52.522;13.622;2023-02-01T07:25:55;12.90;;;3.00;;
78143;SDS011;67394;52.522;13.622;2023-02-01T07:28:23;10.73;;;3.72;;
78143;SDS011;67394;52.522;13.622;2023-02-01T07:30:50;12.30;;;3.13;;
78143;SDS011;67394;52.522;13.622;2023-02-01T07:33:20;10.05;;;3.05;;
78143;SDS011;67394;52.522;13.622;2023-02-01T07:35:48;11.20;;;2.92;;
78143;SDS011;67394;52.522;13.622;2023-02-01T07:38:15;12.68;;;3.35;;
78143;SDS011;67394;52.522;13.622;2023-02-01T07:40:42;11.25;;;3.17;;
78143;SDS011;67394;52.522;13.622;2023-02-01T07:43:09;13.30;;;3.95;;
78143;SDS011;67394;52.522;13.622;2023-02-01T07:45:35;5.85;;;2.75;;
78143;SDS011;67394;52.522;13.622;2023-02-01T07:48:02;16.48;;;3.85;;
78143;SDS011;67394;52.522;13.622;2023-02-01T07:50:29;12.32;;;2.78;;
78143;SDS011;67394;52.522;13.622;2023-02-01T07:52:58;10.50;;;3.75;;
78143;SDS011;67394;52.522;13.622;2023-02-01T07:55:25;12.45;;;3.63;;
78143;SDS011;67394;52.522;13.622;2023-02-01T07:57:51;10.00;;;3.13;;
78143;SDS011;67394;52.522;13.622;2023-02-01T08:00:18;11.40;;;2.80;;
78143;SDS011;67394;52.522;13.622;2023-02-01T08:02:45;12.90;;;3.47;;
78143;SDS011;67394;52.522;13.622;2023-02-01T08:05:11;11.07;;;3.28;;
78143;SDS011;67394;52.522;13.622;2023-02-01T08:07:37;8.52;;;3.10;;
78143;SDS011;67394;52.522;13.622;2023-02-01T08:10:04;14.57;;;3.67;;
78143;SDS011;67394;52.522;13.622;2023-02-01T08:12:30;11.13;;;3.40;;
78143;SDS011;67394;52.522;13.622;2023-02-01T08:14:57;7.72;;;2.90;;
78143;SDS011;67394;52.522;13.622;2023-02-01T08:17:23;13.75;;;3.47;;
78143;SDS011;67394;52.522;13.622;2023-02-01T08:19:49;9.80;;;2.85;;
78143;SDS011;67394;52.522;13.622;2023-02-01T08:22:16;7.93;;;3.22;;
78143;SDS011;67394;52.522;13.622;2023-02-01T08:24:42;13.40;;;4.60;;
78143;SDS011;67394;52.522;13.622;2023-02-01T08:27:08;8.38;;;3.22;;
78143;SDS011;67394;52.522;13.622;2023-02-01T08:29:35;6.65;;;2.97;;
78143;SDS011;67394;52.522;13.622;2023-02-01T08:32:01;6.95;;;3.03;;
78143;SDS011;67394;52.522;13.622;2023-02-01T08:34:27;7.72;;;2.90;;
78143;SDS011;67394;52.522;13.622;2023-02-01T08:36:54;6.15;;;2.92;;
78143;SDS011;67394;52.522;13.622;2023-02-01T08:39:20;8.82;;;3.38;;
78143;SDS011;67394;52.522;13.622;2023-02-01T08:41:46;9.82;;;3.83;;
78143;SDS011;67394;52.522;13.622;2023-02-01T08:44:13;6.30;;;3.13;;
78143;SDS011;67394;52.522;13.622;2023-02-01T08:46:39;6.05;;;3.30;;
78143;SDS011;67394;52.522;13.622;2023-02-01T08:49:05;10.27;;;3.53;;
78143;SDS011;67394;52.522;13.622;2023-02-01T08:51:32;8.52;;;3.20;;
78143;SDS011;67394;52.522;13.622;2023-02-01T08:53:58;7.00;;;3.58;;
78143;SDS011;67394;52.522;13.622;2023-02-01T08:56:24;9.07;;;3.50;;
78143;SDS011;67394;52.522;13.622;2023-02-01T08:58:51;7.75;;;3.78;;
78143;SDS011;67394;52.522;13.622;2023-02-01T09:01:17;7.85;;;3.38;;
78143;SDS011;67394;52.522;13.622;2023-02-01T09:03:43;10.05;;;3.55;;
78143;SDS011;67394;52.522;13.622;2023-02-01T09:06:12;7.53;;;3.53;;
78143;SDS011;67394;52.522;13.622;2023-02-01T09:08:40;7.65;;;3.53;;
78143;SDS011;67394;52.522;13.622;2023-02-01T09:11:08;9.15;;;3.42;;
78143;SDS011;67394;52.522;13.622;2023-02-01T09:13:38;6.57;;;4.05;;
78143;SDS011;67394;52.522;13.622;2023-02-01T09:16:04;9.38;;;3.58;;
78143;SDS011;67394;52.522;13.622;2023-02-01T09:18:31;8.07;;;3.80;;
78143;SDS011;67394;52.522;13.622;2023-02-01T09:20:58;5.32;;;3.17;;
78143;SDS011;67394;52.522;13.622;2023-02-01T09:23:24;7.47;;;3.05;;
78143;SDS011;67394;52.522;13.622;2023-02-01T09:25:50;4.10;;;2.92;;
78143;SDS011;67394;52.522;13.622;2023-02-01T09:28:17;5.72;;;2.33;;
78143;SDS011;67394;52.522;13.622;2023-02-01T09:30:44;7.05;;;3.10;;
78143;SDS011;67394;52.522;13.622;2023-02-01T09:33:11;4.03;;;1.98;;
78143;SDS011;67394;52.522;13.622;2023-02-01T09:35:37;7.70;;;2.60;;
78143;SDS011;67394;52.522;13.622;2023-02-01T09:38:03;4.88;;;2.40;;
78143;SDS011;67394;52.522;13.622;2023-02-01T09:40:30;6.53;;;3.30;;
78143;SDS011;67394;52.522;13.622;2023-02-01T09:45:36;3.33;;;1.80;;
78143;SDS011;67394;52.522;13.622;2023-02-01T09:48:09;7.68;;;2.58;;
78143;SDS011;67394;52.522;13.622;2023-02-01T09:50:41;4.35;;;2.08;;
78143;SDS011;67394;52.522;13.622;2023-02-01T09:53:13;4.95;;;1.90;;
78143;SDS011;67394;52.522;13.622;2023-02-01T09:55:48;3.83;;;1.65;;
78143;SDS011;67394;52.522;13.622;2023-02-01T09:58:22;5.07;;;2.00;;
78143;SDS011;67394;52.522;13.622;2023-02-01T10:00:59;5.20;;;1.50;;
78143;SDS011;67394;52.522;13.622;2023-02-01T10:03:28;5.47;;;1.45;;
78143;SDS011;67394;52.522;13.622;2023-02-01T10:14:29;4.38;;;1.63;;
78143;SDS011;67394;52.522;13.622;2023-02-01T10:17:05;4.15;;;1.40;;
78143;SDS011;67394;52.522;13.622;2023-02-01T10:22:38;4.25;;;1.52;;
78143;SDS011;67394;52.522;13.622;2023-02-01T10:25:32;4.00;;;1.55;;
78143;SDS011;67394;52.522;13.622;2023-02-01T10:28:15;2.88;;;1.30;;
78143;SDS011;67394;52.522;13.622;2023-02-01T10:30:44;5.65;;;1.98;;
78143;SDS011;67394;52.522;13.622;2023-02-01T10:33:17;3.90;;;1.50;;
78143;SDS011;67394;52.522;13.622;2023-02-01T10:35:47;2.97;;;1.40;;
78143;SDS011;67394;52.522;13.622;2023-02-01T10:38:23;5.68;;;1.70;;
78143;SDS011;67394;52.522;13.622;2023-02-01T10:40:53;3.25;;;1.50;;
78143;SDS011;67394;52.522;13.622;2023-02-01T10:43:24;4.00;;;1.80;;
78143;SDS011;67394;52.522;13.622;2023-02-01T10:45:50;3.50;;;1.73;;
78143;SDS011;67394;52.522;13.622;2023-02-01T10:48:17;5.95;;;2.40;;
78143;SDS011;67394;52.522;13.622;2023-02-01T10:50:49;6.20;;;2.50;;
78143;SDS011;67394;52.522;13.622;2023-02-01T10:53:21;7.10;;;2.20;;
78143;SDS011;67394;52.522;13.622;2023-02-01T10:55:52;5.75;;;2.47;;
78143;SDS011;67394;52.522;13.622;2023-02-01T10:58:29;9.82;;;2.70;;
78143;SDS011;67394;52.522;13.622;2023-02-01T11:00:58;4.30;;;2.33;;
78143;SDS011;67394;52.522;13.622;2023-02-01T11:03:32;8.63;;;2.35;;
78143;SDS011;67394;52.522;13.622;2023-02-01T11:05:58;4.32;;;2.00;;
78143;SDS011;67394;52.522;13.622;2023-02-01T11:08:25;6.07;;;1.98;;
78143;SDS011;67394;52.522;13.622;2023-02-01T11:10:59;4.47;;;1.83;;
78143;SDS011;67394;52.522;13.622;2023-02-01T11:13:29;6.05;;;2.08;;
78143;SDS011;67394;52.522;13.622;2023-02-01T11:15:58;4.45;;;2.28;;
78143;SDS011;67394;52.522;13.622;2023-02-01T11:18:28;5.55;;;2.13;;
78143;SDS011;67394;52.522;13.622;2023-02-01T11:20:56;6.10;;;3.20;;
78143;SDS011;67394;52.522;13.622;2023-02-01T11:23:25;4.22;;;2.70;;
78143;SDS011;67394;52.522;13.622;2023-02-01T11:25:55;4.63;;;1.55;;
78143;SDS011;67394;52.522;13.622;2023-02-01T11:28:27;6.68;;;2.45;;
78143;SDS011;67394;52.522;13.622;2023-02-01T11:30:58;5.97;;;2.15;;
78143;SDS011;67394;52.522;13.622;2023-02-01T11:33:30;3.88;;;2.70;;
78143;SDS011;67394;52.522;13.622;2023-02-01T11:35:58;6.43;;;2.53;;
78143;SDS011;67394;52.522;13.622;2023-02-01T11:38:29;5.47;;;2.30;;
78143;SDS011;67394;52.522;13.622;2023-02-01T11:41:13;5.95;;;2.67;;
78143;SDS011;67394;52.522;13.622;2023-02-01T11:43:50;6.10;;;2.90;;
78143;SDS011;67394;52.522;13.622;2023-02-01T11:46:35;5.72;;;2.63;;
78143;SDS011;67394;52.522;13.622;2023-02-01T11:51:54;7.93;;;2.67;;
78143;SDS011;67394;52.522;13.622;2023-02-01T11:57:50;8.60;;;2.65;;
78143;SDS011;67394;52.522;13.622;2023-02-01T12:00:25;10.38;;;2.42;;
78143;SDS011;67394;52.522;13.622;2023-02-01T12:05:57;6.28;;;2.67;;
78143;SDS011;67394;52.522;13.622;2023-02-01T12:25:30;8.23;;;2.67;;
78143;SDS011;67394;52.522;13.622;2023-02-01T12:28:14;7.43;;;1.88;;
78143;SDS011;67394;52.522;13.622;2023-02-01T12:34:27;5.40;;;1.83;;
78143;SDS011;67394;52.522;13.622;2023-02-01T12:42:26;7.60;;;2.70;;
78143;SDS011;67394;52.522;13.622;2023-02-01T12:45:10;6.18;;;2.25;;
78143;SDS011;67394;52.522;13.622;2023-02-01T12:48:06;5.53;;;2.22;;
78143;SDS011;67394;52.522;13.622;2023-02-01T12:50:57;7.20;;;2.08;;
78143;SDS011;67394;52.522;13.622;2023-02-01T12:53:49;8.80;;;2.35;;
78143;SDS011;67394;52.522;13.622;2023-02-01T12:58:50;4.78;;;2.42;;
78143;SDS011;67394;52.522;13.622;2023-02-01T13:01:31;6.60;;;2.10;;
78143;SDS011;67394;52.522;13.622;2023-02-01T13:04:10;11.95;;;2.47;;
78143;SDS011;67394;52.522;13.622;2023-02-01T13:06:47;7.68;;;1.90;;
78143;SDS011;67394;52.522;13.622;2023-02-01T13:09:20;7.13;;;2.55;;
78143;SDS011;67394;52.522;13.622;2023-02-01T13:11:52;6.00;;;2.15;;
78143;SDS011;67394;52.522;13.622;2023-02-01T13:14:32;5.82;;;2.70;;
78143;SDS011;67394;52.522;13.622;2023-02-01T13:17:02;2.25;;;1.42;;
78143;SDS011;67394;52.522;13.622;2023-02-01T13:19:49;1.98;;;1.23;;
78143;SDS011;67394;52.522;13.622;2023-02-01T13:22:22;1.23;;;0.45;;
78143;SDS011;67394;52.522;13.622;2023-02-01T13:25:00;2.08;;;0.93;;
78143;SDS011;67394;52.522;13.622;2023-02-01T13:27:31;1.23;;;0.70;;
78143;SDS011;67394;52.522;13.622;2023-02-01T13:35:40;0.68;;;0.47;;
78143;SDS011;67394;52.522;13.622;2023-02-01T13:41:29;1.52;;;0.80;;
78143;SDS011;67394;52.522;13.622;2023-02-01T13:44:00;2.63;;;1.13;;
78143;SDS011;67394;52.522;13.622;2023-02-01T13:46:30;2.35;;;1.70;;
78143;SDS011;67394;52.522;13.622;2023-02-01T13:49:28;3.70;;;1.40;;
78143;SDS011;67394;52.522;13.622;2023-02-01T13:51:58;3.97;;;3.30;;
78143;SDS011;67394;52.522;13.622;2023-02-01T13:54:29;7.22;;;4.18;;
78143;SDS011;67394;52.522;13.622;2023-02-01T13:57:29;8.73;;;4.05;;
78143;SDS011;67394;52.522;13.622;2023-02-01T14:00:23;9.88;;;3.25;;
78143;SDS011;67394;52.522;13.622;2023-02-01T14:24:00;7.18;;;2.25;;
78143;SDS011;67394;52.522;13.622;2023-02-01T14:26:47;7.95;;;2.97;;
78143;SDS011;67394;52.522;13.622;2023-02-01T14:45:45;6.97;;;2.60;;
78143;SDS011;67394;52.522;13.622;2023-02-01T14:47:46;9.45;;;3.47;;
78143;SDS011;67394;52.522;13.622;2023-02-01T15:00:51;10.88;;;3.08;;
78143;SDS011;67394;52.522;13.622;2023-02-01T15:06:01;8.20;;;2.20;;
78143;SDS011;67394;52.522;13.622;2023-02-01T15:08:28;8.18;;;2.53;;
78143;SDS011;67394;52.522;13.622;2023-02-01T15:10:58;5.32;;;2.45;;
78143;SDS011;67394;52.522;13.622;2023-02-01T15:13:29;10.45;;;3.20;;
78143;SDS011;67394;52.522;13.622;2023-02-01T15:16:03;6.55;;;2.40;;
78143;SDS011;67394;52.522;13.622;2023-02-01T15:18:41;8.63;;;3.13;;
78143;SDS011;67394;52.522;13.622;2023-02-01T15:24:09;7.18;;;2.08;;
78143;SDS011;67394;52.522;13.622;2023-02-01T15:26:36;4.47;;;1.90;;
78143;SDS011;67394;52.522;13.622;2023-02-01T15:29:03;4.18;;;2.13;;
78143;SDS011;67394;52.522;13.622;2023-02-01T15:34:07;2.88;;;2.15;;
78143;SDS011;67394;52.522;13.622;2023-02-01T15:36:34;6.53;;;3.80;;
78143;SDS011;67394;52.522;13.622;2023-02-01T15:42:09;3.30;;;1.90;;
78143;SDS011;67394;52.522;13.622;2023-02-01T15:44:38;4.40;;;2.20;;
78143;SDS011;67394;52.522;13.622;2023-02-01T15:47:18;3.22;;;1.90;;
78143;SDS011;67394;52.522;13.622;2023-02-01T15:49:50;3.03;;;2.13;;
78143;SDS011;67394;52.522;13.622;2023-02-01T15:55:07;3.47;;;1.85;;
78143;SDS011;67394;52.522;13.622;2023-02-01T15:57:43;4.78;;;2.00;;
78143;SDS011;67394;52.522;13.622;2023-02-01T16:03:00;3.22;;;2.20;;
78143;SDS011;67394;52.522;13.622;2023-02-01T16:05:42;4.32;;;2.42;;
78143;SDS011;67394;52.522;13.622;2023-02-01T16:10:39;2.85;;;1.73;;
78143;SDS011;67394;52.522;13.622;2023-02-01T16:13:07;3.17;;;1.50;;
78143;SDS011;67394;52.522;13.622;2023-02-01T16:15:33;2.65;;;1.35;;
78143;SDS011;67394;52.522;13.622;2023-02-01T16:18:00;3.00;;;1.42;;
78143;SDS011;67394;52.522;13.622;2023-02-01T16:20:26;3.35;;;1.50;;
78143;SDS011;67394;52.522;13.622;2023-02-01T16:22:52;2.40;;;1.60;;
78143;SDS011;67394;52.522;13.622;2023-02-01T16:25:19;2.35;;;0.98;;
78143;SDS011;67394;52.522;13.622;2023-02-01T16:27:45;3.40;;;2.58;;
78143;SDS011;67394;52.522;13.622;2023-02-01T16:30:12;4.10;;;3.15;;
78143;SDS011;67394;52.522;13.622;2023-02-01T16:32:38;3.28;;;1.77;;
78143;SDS011;67394;52.522;13.622;2023-02-01T16:35:21;5.13;;;3.40;;
78143;SDS011;67394;52.522;13.622;2023-02-01T16:37:53;6.43;;;3.08;;
78143;SDS011;67394;52.522;13.622;2023-02-01T16:40:20;4.28;;;1.70;;
78143;SDS011;67394;52.522;13.622;2023-02-01T16:42:48;5.30;;;3.42;;
78143;SDS011;67394;52.522;13.622;2023-02-01T16:45:16;5.38;;;3.42;;
78143;SDS011;67394;52.522;13.622;2023-02-01T16:47:47;4.43;;;2.53;;
78143;SDS011;67394;52.522;13.622;2023-02-01T16:50:16;2.25;;;1.42;;
78143;SDS011;67394;52.522;13.622;2023-02-01T16:52:49;4.00;;;2.88;;
78143;SDS011;67394;52.522;13.622;2023-02-01T16:55:17;2.85;;;1.35;;
78143;SDS011;67394;52.522;13.622;2023-02-01T16:57:47;4.60;;;2.40;;
78143;SDS011;67394;52.522;13.622;2023-02-01T17:00:14;2.28;;;1.25;;
78143;SDS011;67394;52.522;13.622;2023-02-01T17:02:49;2.05;;;1.33;;
78143;SDS011;67394;52.522;13.622;2023-02-01T17:05:16;1.85;;;1.10;;
78143;SDS011;67394;52.522;13.622;2023-02-01T17:07:42;3.95;;;1.75;;
78143;SDS011;67394;52.522;13.622;2023-02-01T17:10:15;2.65;;;1.50;;
78143;SDS011;67394;52.522;13.622;2023-02-01T17:12:58;2.63;;;1.40;;
78143;SDS011;67394;52.522;13.622;2023-02-01T17:15:25;2.10;;;1.17;;
78143;SDS011;67394;52.522;13.622;2023-02-01T17:17:54;3.22;;;1.85;;
78143;SDS011;67394;52.522;13.622;2023-02-01T17:20:21;3.15;;;1.80;;
78143;SDS011;67394;52.522;13.622;2023-02-01T17:22:50;3.83;;;1.75;;